Flight Track Log - Related Links

Times and Time Zones

All times are in EDT time to prevent confusion due to time zone crossing. See the UAL3776 flight status page for this flight to view local times or setup timezone preferences in your user account.

Time Position Orientation Groundspeed Altitude Reporting Facility
EDT Latitude Longitude Course Direction KTS MPH feet Rate Location/Type
Sun 03:41:15 PM 38.9167 -77.5500 226° Southwest 207 238 3,100  Level Potomac TRACON
Sun 03:42:15 PM 38.8833 -77.6333 243° Southwest 256 295 5,200 2,035 Climbing Potomac TRACON
Sun 03:43:00 PM 38.5389 -77.6434 185° South  Level Estimated
Sun 03:43:10 PM 38.8333 -77.6833 218° Southwest 270 311 7,000  Level Potomac TRACON
Sun 03:44:00 PM 38.4410 -77.5846 155° Southeast  Level FlightAware Approximate
Sun 03:44:10 PM 38.7500 -77.6667 171° South 286 329 7,100  Level Potomac TRACON
Sun 03:45:00 PM 38.3399 -77.6337 218° Southwest  Level Estimated
Sun 03:45:13 PM 38.6789 -77.6472 168° South 295 339 9,900  Level Washington Center
Sun 03:46:00 PM 38.2388 -77.6827 226° Southwest  Level Estimated
Sun 03:46:13 PM 38.6033 -77.6797 199° South 314 361 12,800  Level Washington Center
Sun 03:47:13 PM 38.5233 -77.7306 206° Southwest 309 356 14,200 1,800 Climbing Washington Center
Sun 03:48:13 PM 38.4347 -77.7889 207° Southwest 335 386 16,400 2,300 Climbing Washington Center
Sun 03:49:13 PM 38.3461 -77.8472 207° Southwest 357 411 18,800 2,200 Climbing Washington Center
Sun 03:50:13 PM 38.2553 -77.9053 207° Southwest 363 418 20,800 1,600 Climbing Washington Center
Sun 03:51:13 PM 38.1603 -77.9658 207° Southwest 374 430 22,000 600 Climbing Washington Center
Sun 03:52:13 PM 38.0567 -78.0339 207° Southwest 383 441 22,000  Level Washington Center
Sun 03:53:13 PM 37.9594 -78.0964 207° Southwest 388 447 22,000  Level Washington Center
Sun 03:54:13 PM 37.8747 -78.1514 207° Southwest 393 452 22,000  Level Washington Center
Sun 03:55:13 PM 37.7753 -78.2164 207° Southwest 388 447 22,000  Level Washington Center
Sun 03:56:13 PM 37.6781 -78.2786 207° Southwest 383 441 22,000  Level Washington Center
Sun 03:57:13 PM 37.5850 -78.3383 207° Southwest 383 441 22,000  Level Washington Center
Sun 03:58:13 PM 37.4897 -78.3978 206° Southwest 383 441 22,000  Level Washington Center
Sun 03:59:13 PM 37.4028 -78.4547 207° Southwest 383 441 22,000  Level Washington Center
Sun 04:00:13 PM 37.3056 -78.5136 206° Southwest 383 441 22,000  Level Washington Center
Sun 04:01:13 PM 37.2058 -78.5775 207° Southwest 390 449 22,000  Level Washington Center
Sun 04:02:13 PM 37.1122 -78.6547 213° Southwest 401 461 22,000 -150 Level Washington Center
Sun 04:03:13 PM 37.0078 -78.7417 214° Southwest 411 473 21,700 -950 Descending Washington Center
Sun 04:04:13 PM 36.9225 -78.8083 212° Southwest 403 464 20,100 -1,500 Descending Washington Center
Sun 04:05:13 PM 36.8456 -78.8725 214° Southwest 369 425 18,700 -1,400 Descending Washington Center
Sun 04:06:13 PM 36.7664 -78.9392 214° Southwest 351 404 17,300 -1,359 Descending Washington Center
Sun 04:07:21 PM 36.6664 -79.0100 210° Southwest 350 403 15,800 -1,650 Descending Washington Center
Sun 04:08:13 PM 36.5897 -78.9936 170° South 322 371 14,000 -2,196 Descending Washington Center
Sun 04:09:13 PM 36.4986 -78.9664 166° South 328 377 11,700 -2,000 Descending Washington Center
Sun 04:10:13 PM 36.4119 -78.9394 166° South 328 377 10,000 -1,477 Descending Washington Center
Sun 04:11:23 PM 36.3261 -78.8714 147° Southeast 319 367 8,500 -1,000 Descending Washington Center
Sun 04:12:13 PM 36.2711 -78.8200 143° Southeast 307 353 8,000 -545 Descending Washington Center
Sun 04:13:13 PM 36.2161 -78.7714 145° Southeast 264 304 7,500 -900 Descending Washington Center
Sun 04:14:13 PM 36.1692 -78.7311 145° Southeast 235 270 6,200 -1,050 Descending Washington Center
Sun 04:15:13 PM 36.1117 -78.6928 152° Southeast 223 257 5,400 -1,350 Descending Washington Center
Sun 04:16:13 PM 36.0581 -78.6700 161° South 217 250 3,500 -1,700 Descending Washington Center
Sun 04:17:13 PM 36.0019 -78.6678 178° South 212 244 2,000 -1,125 Descending Washington Center
Sun 04:17:33 PM 35.9828 -78.6775 202° Southwest 194 223 2,000 -207 Level Washington Center
Sun 04:18:40 PM 35.9419 -78.7219 221° Southwest 166 191 1,700 -443 Descending Washington Center
Sun 04:19:35 PM 35.9161 -78.7492 220° Southwest 127 146 1,100 -655 Descending Washington Center

Login

Don't have an account? Register now (free) for customized features, flight alerts, and more!